Time;durP1;ratioP1;P1;durP2;ratioP2;P2;SDS_P1;SDS_P2;PMS_P1;PMS_P2;Temp;Humidity;BMP_temperature;BMP_pressure;BME280_temperature;BME280_humidity;BME280_pressure;Samples;Min_cycle;Max_cycle;Signal;HPM_P1;HPM_P2
2023/07/10 00:00:54;;;;;;;6.07;3.80;;;;;;;27.55;38.73;100037.06;4499443;31;33435;-65
2023/07/10 00:03:22;;;;;;;9.35;4.10;;;;;;;27.54;38.73;100032.66;4499591;31;33790;-65
2023/07/10 00:05:50;;;;;;;7.55;3.83;;;;;;;27.54;38.64;100033.50;4499529;31;33297;-73
2023/07/10 00:08:17;;;;;;;6.50;3.50;;;;;;;27.53;38.65;100036.50;4499248;31;33745;-73
2023/07/10 00:10:45;;;;;;;6.03;4.12;;;;;;;27.54;38.66;100035.41;4495882;31;33939;-72
2023/07/10 00:13:12;;;;;;;7.45;4.10;;;;;;;27.53;38.65;100040.06;4469274;32;34684;-72
2023/07/10 00:15:40;;;;;;;6.07;3.90;;;;;;;27.52;38.64;100038.41;4483387;32;33328;-73
2023/07/10 00:18:14;;;;;;;5.95;4.07;;;;;;;27.52;38.64;100038.41;4483499;32;34756;-71
2023/07/10 00:20:42;;;;;;;6.57;4.22;;;;;;;27.52;38.59;100038.41;4483596;32;34016;-73
2023/07/10 00:23:09;;;;;;;6.70;4.43;;;;;;;27.52;38.54;100035.66;4469250;32;35140;-72
2023/07/10 00:25:37;;;;;;;5.85;4.03;;;;;;;27.52;38.53;100038.41;4483270;32;34318;-73
2023/07/10 00:28:14;;;;;;;6.50;4.15;;;;;;;27.51;38.53;100035.88;4468979;32;34846;-69
2023/07/10 00:30:44;;;;;;;6.10;3.95;;;;;;;27.51;38.56;100039.47;4469376;32;34764;-72
2023/07/10 00:33:12;;;;;;;8.63;3.90;;;;;;;27.51;38.54;100042.19;4483226;32;33815;-72
2023/07/10 00:35:40;;;;;;;6.43;3.65;;;;;;;27.51;38.49;100035.88;4468910;32;34279;-72
2023/07/10 00:38:19;;;;;;;6.03;3.87;;;;;;;27.49;38.49;100038.88;4470440;32;34701;-72
2023/07/10 00:40:47;;;;;;;8.90;4.28;;;;;;;27.51;38.50;100038.62;4485431;32;33917;-72
2023/07/10 00:43:25;;;;;;;6.75;4.15;;;;;;;27.50;38.45;100032.31;4458476;32;34001;-72
2023/07/10 00:45:53;;;;;;;8.02;4.37;;;;;;;27.50;38.46;100039.72;4458673;32;33538;-72
2023/07/10 00:48:30;;;;;;;7.03;4.18;;;;;;;27.48;38.52;100044.63;4485263;32;33825;-71
2023/07/10 00:50:58;;;;;;;6.65;3.97;;;;;;;27.47;38.54;100043.81;4485251;32;33880;-73
2023/07/10 00:53:29;;;;;;;9.50;4.28;;;;;;;27.46;38.56;100033.91;4458090;32;34075;-71
2023/07/10 00:55:57;;;;;;;5.85;4.10;;;;;;;27.46;38.58;100031.16;4471301;32;33502;-69
2023/07/10 00:58:37;;;;;;;7.18;4.00;;;;;;;27.45;38.59;100032.25;4471248;32;34057;-73
2023/07/10 01:01:06;;;;;;;6.12;4.00;;;;;;;27.46;38.60;100033.91;4471249;32;34006;-71
2023/07/10 01:03:34;;;;;;;6.12;4.15;;;;;;;27.44;38.59;100030.59;4485329;32;33777;-73
2023/07/10 01:06:12;;;;;;;6.97;3.97;;;;;;;27.44;38.59;100038.81;4485099;32;33111;-72
2023/07/10 01:08:46;;;;;;;6.97;4.28;;;;;;;27.43;38.59;100043.47;4485254;32;34077;-72
2023/07/10 01:11:14;;;;;;;6.15;4.22;;;;;;;27.42;38.57;100043.72;4477874;31;34029;-73
2023/07/10 01:13:42;;;;;;;6.28;4.25;;;;;;;27.41;38.58;100042.84;4499658;31;33821;-72
2023/07/10 01:16:10;;;;;;;7.15;4.47;;;;;;;27.41;38.61;100039.28;4499709;31;33851;-73
2023/07/10 01:18:38;;;;;;;6.40;4.20;;;;;;;27.40;38.63;100043.94;4499910;31;33784;-74
2023/07/10 01:21:39;;;;;;;6.25;4.28;;;;;;;27.40;38.65;100043.13;4499685;31;33892;-71
2023/07/10 01:24:07;;;;;;;6.65;4.22;;;;;;;27.43;38.62;100032.50;4465630;31;34482;-74
2023/07/10 01:26:37;;;;;;;6.50;4.32;;;;;;;27.38;38.65;100034.31;4500937;31;33946;-73
2023/07/10 01:29:11;;;;;;;7.28;4.05;;;;;;;27.38;38.67;100037.06;4500912;31;33957;-72
2023/07/10 01:31:39;;;;;;;6.68;4.37;;;;;;;27.36;38.68;100034.56;4487133;31;33757;-73
2023/07/10 01:34:06;;;;;;;6.60;4.22;;;;;;;27.37;38.68;100024.41;4499537;31;33786;-73
2023/07/10 01:36:35;;;;;;;6.18;4.07;;;;;;;27.36;38.68;100037.28;4499678;31;33546;-72
2023/07/10 01:39:06;;;;;;;8.23;4.25;;;;;;;27.35;38.66;100035.62;4499514;31;33716;-73
2023/07/10 01:41:39;;;;;;;7.45;4.53;;;;;;;27.35;38.66;100032.06;4500863;31;34030;-73
2023/07/10 01:44:25;;;;;;;5.55;3.80;;;;;;;27.34;38.65;100033.16;4486903;31;34494;-72
2023/07/10 01:46:53;;;;;;;6.47;4.30;;;;;;;27.36;38.63;100040.03;4499586;31;34297;-69
2023/07/10 01:49:25;;;;;;;5.75;4.25;;;;;;;27.33;38.64;100034.25;4500073;31;33746;-72
2023/07/10 01:51:53;;;;;;;6.30;4.25;;;;;;;27.32;38.66;100032.56;4499542;31;33498;-72
2023/07/10 01:54:21;;;;;;;6.57;4.15;;;;;;;27.31;38.67;100030.91;4499318;31;33887;-68
2023/07/10 01:56:49;;;;;;;7.22;4.37;;;;;;;27.31;38.66;100026.25;4500949;31;33351;-70
2023/07/10 01:59:16;;;;;;;6.82;4.35;;;;;;;27.31;38.66;100025.41;4500829;31;33964;-72
2023/07/10 02:01:44;;;;;;;5.75;3.97;;;;;;;27.30;38.67;100023.75;4500478;31;34763;-72
2023/07/10 02:04:12;;;;;;;6.57;4.28;;;;;;;27.28;38.67;100021.28;4500569;31;34858;-71
2023/07/10 02:06:40;;;;;;;8.45;4.72;;;;;;;27.27;38.64;100019.59;4500623;31;33751;-72
2023/07/10 02:09:07;;;;;;;7.07;4.65;;;;;;;27.28;38.63;100025.91;4500391;31;34701;-70
2023/07/10 02:11:37;;;;;;;8.00;4.10;;;;;;;27.27;38.65;100026.97;4500538;31;34797;-71
2023/07/10 02:14:05;;;;;;;6.25;4.25;;;;;;;27.25;38.65;100024.50;4500706;31;33461;-73
2023/07/10 02:16:35;;;;;;;6.97;3.75;;;;;;;27.26;38.63;100026.16;4499187;31;33590;-73
2023/07/10 02:19:04;;;;;;;6.30;4.57;;;;;;;27.26;38.64;100023.41;4499646;31;33478;-71
2023/07/10 02:21:33;;;;;;;7.30;4.05;;;;;;;27.26;38.65;100019.84;4499381;31;33934;-72
2023/07/10 02:24:00;;;;;;;6.97;4.18;;;;;;;27.25;38.64;100023.66;4499032;31;33955;-73
2023/07/10 02:26:29;;;;;;;6.20;3.75;;;;;;;27.25;38.62;100023.66;4499279;31;33874;-71
2023/07/10 02:28:57;;;;;;;8.52;4.62;;;;;;;27.24;38.63;100019.28;4500324;31;34644;-68
2023/07/10 02:31:25;;;;;;;8.40;4.37;;;;;;;27.23;38.65;100025.81;4500107;31;33753;-73
2023/07/10 02:33:53;;;;;;;6.28;3.95;;;;;;;27.22;38.68;100027.72;4500460;31;33844;-73
2023/07/10 02:36:22;;;;;;;6.10;3.97;;;;;;;27.20;38.70;100021.66;4500275;31;34089;-73
2023/07/10 02:38:49;;;;;;;5.93;4.03;;;;;;;27.19;38.70;100020.00;4500229;31;33918;-73
2023/07/10 02:41:17;;;;;;;6.37;3.90;;;;;;;27.19;38.70;100017.28;4500294;31;34513;-72
2023/07/10 02:43:45;;;;;;;7.37;4.37;;;;;;;27.19;38.69;100026.31;4500336;31;34063;-72
2023/07/10 02:46:12;;;;;;;6.32;3.70;;;;;;;27.18;38.68;100016.41;4500168;31;33551;-69
2023/07/10 02:48:40;;;;;;;6.30;3.92;;;;;;;27.18;38.68;100019.16;4500170;31;34571;-71
2023/07/10 02:51:08;;;;;;;6.90;4.30;;;;;;;27.18;38.72;100021.91;4500287;31;33848;-71
2023/07/10 02:53:35;;;;;;;7.47;4.65;;;;;;;27.17;38.73;100019.41;4499890;31;34113;-72
2023/07/10 02:56:03;;;;;;;7.15;4.47;;;;;;;27.17;38.72;100022.16;4500293;31;33597;-70
2023/07/10 02:58:31;;;;;;;6.68;4.47;;;;;;;27.16;38.74;100018.59;4500236;31;34014;-71
2023/07/10 03:00:59;;;;;;;6.43;4.50;;;;;;;27.16;38.75;100017.75;4498784;31;34181;-71
2023/07/10 03:03:27;;;;;;;7.45;4.22;;;;;;;27.15;38.81;100016.09;4500163;31;34911;-72
2023/07/10 03:05:55;;;;;;;6.57;4.05;;;;;;;27.15;38.82;100010.63;4500215;31;33203;-72
2023/07/10 03:08:23;;;;;;;6.40;4.60;;;;;;;27.15;38.82;100010.63;4499123;31;33600;-67
2023/07/10 03:10:59;;;;;;;7.82;4.68;;;;;;;27.15;38.83;100008.72;4498783;31;34045;-68
2023/07/10 03:13:26;;;;;;;7.10;4.03;;;;;;;27.14;38.84;100009.81;4499997;31;34348;-70
2023/07/10 03:16:02;;;;;;;6.47;4.28;;;;;;;27.14;38.85;100014.41;4500166;31;33807;-71
2023/07/10 03:18:30;;;;;;;6.75;4.37;;;;;;;27.13;38.89;100012.75;4498773;31;34663;-70
2023/07/10 03:20:58;;;;;;;6.45;4.37;;;;;;;27.14;38.90;100012.53;4500265;31;33537;-72
2023/07/10 03:23:25;;;;;;;5.80;4.28;;;;;;;27.13;38.94;100015.50;4499929;31;34589;-70
2023/07/10 03:25:53;;;;;;;7.78;4.75;;;;;;;27.13;38.98;100015.50;4499993;31;33454;-71
2023/07/10 03:28:21;;;;;;;8.48;4.65;;;;;;;27.13;39.00;100019.06;4499913;31;34953;-70
2023/07/10 03:30:48;;;;;;;7.25;4.57;;;;;;;27.13;39.06;100010.03;4499749;31;34119;-69
2023/07/10 03:33:17;;;;;;;7.45;4.78;;;;;;;27.12;39.07;100014.69;4499879;31;34211;-72
2023/07/10 03:35:48;;;;;;;7.47;4.50;;;;;;;27.12;39.09;100017.41;4499797;31;34189;-71
2023/07/10 03:38:16;;;;;;;5.85;3.97;;;;;;;27.11;39.13;100010.28;4499894;31;34825;-72
2023/07/10 03:40:55;;;;;;;7.07;4.62;;;;;;;27.11;39.15;100003.97;4500000;31;34045;-69
2023/07/10 03:43:24;;;;;;;7.45;4.35;;;;;;;27.13;39.16;100004.53;4499768;31;33838;-71
2023/07/10 03:45:51;;;;;;;6.68;4.60;;;;;;;27.12;39.18;99997.41;4500011;31;33743;-72
2023/07/10 03:48:19;;;;;;;6.20;4.65;;;;;;;27.11;39.24;99995.75;4498424;31;33797;-69
2023/07/10 03:50:46;;;;;;;6.00;4.18;;;;;;;27.10;39.29;99992.19;4498531;31;34080;-72
2023/07/10 03:53:14;;;;;;;7.68;4.70;;;;;;;27.10;39.31;99994.94;4499715;31;33913;-73
2023/07/10 03:55:51;;;;;;;7.57;4.55;;;;;;;27.09;39.36;99996.00;4499343;31;33169;-74
2023/07/10 03:58:24;;;;;;;7.18;5.07;;;;;;;27.11;39.41;99999.31;4498367;31;33750;-73
2023/07/10 04:00:52;;;;;;;7.57;4.70;;;;;;;27.10;39.51;99997.66;4498226;31;33739;-73
2023/07/10 04:03:21;;;;;;;7.85;4.82;;;;;;;27.11;39.56;100004.81;4498261;31;33941;-72
2023/07/10 04:05:52;;;;;;;9.05;5.20;;;;;;;27.11;39.63;100004.81;4499534;31;32999;-72
2023/07/10 04:08:20;;;;;;;8.18;5.22;;;;;;;27.11;39.69;100006.72;4499282;31;34700;-68
2023/07/10 04:10:51;;;;;;;7.00;4.55;;;;;;;27.11;39.74;99998.50;4499303;31;33944;-73
2023/07/10 04:13:19;;;;;;;6.95;4.57;;;;;;;27.11;39.83;100003.97;4500927;31;33654;-72
2023/07/10 04:15:57;;;;;;;7.60;5.22;;;;;;;27.11;39.88;99998.50;4500414;31;33243;-72
2023/07/10 04:18:29;;;;;;;6.72;4.40;;;;;;;27.12;39.89;100009.19;4501270;31;33090;-72
2023/07/10 04:20:58;;;;;;;6.97;4.70;;;;;;;27.12;40.00;100011.94;4501219;31;34632;-73
2023/07/10 04:23:26;;;;;;;8.40;5.40;;;;;;;27.12;40.03;100011.09;4501333;31;34472;-73
2023/07/10 04:25:54;;;;;;;9.63;5.40;;;;;;;27.13;40.11;100007.28;4501391;31;33568;-71
2023/07/10 04:28:21;;;;;;;6.87;5.10;;;;;;;27.13;40.16;100012.75;4501381;31;33867;-73
2023/07/10 04:30:49;;;;;;;7.00;4.95;;;;;;;27.13;40.27;100013.59;4501049;31;33890;-67
2023/07/10 04:33:18;;;;;;;9.10;5.32;;;;;;;27.14;40.34;100007.06;4499882;31;34037;-70
2023/07/10 04:35:54;;;;;;;7.30;4.97;;;;;;;27.14;40.43;100007.06;4499883;31;34101;-72
2023/07/10 04:38:24;;;;;;;8.82;5.03;;;;;;;27.16;40.51;100004.06;4499977;31;33480;-65
2023/07/10 04:40:55;;;;;;;8.27;5.45;;;;;;;27.15;40.56;100000.50;4501109;31;33753;-72
2023/07/10 04:43:23;;;;;;;7.12;4.87;;;;;;;27.15;40.55;100000.50;4493764;31;33435;-71
2023/07/10 04:45:53;;;;;;;9.48;5.28;;;;;;;27.16;40.61;100004.88;4492578;31;33164;-71
2023/07/10 04:48:21;;;;;;;9.00;5.45;;;;;;;27.16;40.59;100007.63;4489922;31;33613;-69
2023/07/10 04:50:50;;;;;;;14.40;5.18;;;;;;;27.18;40.82;99997.25;4484610;31;34659;-71
2023/07/10 04:53:18;;;;;;;9.07;5.15;;;;;;;27.18;41.00;99999.16;4499889;31;34360;-73
2023/07/10 04:55:46;;;;;;;8.05;4.78;;;;;;;27.18;40.91;99994.50;4501076;31;33868;-69
2023/07/10 04:58:14;;;;;;;7.40;4.80;;;;;;;27.19;41.04;99998.94;4487026;31;33943;-72
2023/07/10 05:00:42;;;;;;;7.32;4.97;;;;;;;27.22;41.01;99997.59;4500966;31;34023;-65
2023/07/10 05:03:09;;;;;;;8.43;5.35;;;;;;;27.21;41.17;100007.72;4491455;31;33380;-65
2023/07/10 05:05:37;;;;;;;9.30;5.35;;;;;;;27.22;41.31;100005.81;4500968;31;33479;-65
2023/07/10 05:08:04;;;;;;;9.05;5.15;;;;;;;27.22;41.41;100008.53;4491983;31;33882;-73
2023/07/10 05:10:32;;;;;;;8.60;4.68;;;;;;;27.23;41.52;100006.63;4487178;31;34703;-71
2023/07/10 05:13:00;;;;;;;7.85;5.03;;;;;;;27.25;41.57;100015.47;4501318;31;34131;-70
2023/07/10 05:15:28;;;;;;;7.70;4.95;;;;;;;27.25;41.54;100013.53;4500734;31;33364;-70
2023/07/10 05:17:59;;;;;;;8.07;5.10;;;;;;;27.26;41.63;100019.84;4500438;31;33942;-71
2023/07/10 05:20:27;;;;;;;7.75;5.50;;;;;;;27.27;41.67;100016.03;4495284;31;33722;-73
2023/07/10 05:22:54;;;;;;;8.45;5.15;;;;;;;27.28;41.77;100020.41;4500515;31;34364;-66
2023/07/10 05:25:22;;;;;;;8.38;5.47;;;;;;;27.29;41.94;100017.44;4500180;31;33666;-66
2023/07/10 05:27:50;;;;;;;8.18;4.75;;;;;;;27.30;42.18;100019.09;4499558;31;34526;-65
2023/07/10 05:30:17;;;;;;;6.95;5.30;;;;;;;27.32;42.17;100011.47;4500586;31;33636;-66
2023/07/10 05:32:45;;;;;;;8.00;5.40;;;;;;;27.32;42.25;100016.94;4500864;31;34551;-65
2023/07/10 05:35:12;;;;;;;8.02;5.50;;;;;;;27.34;42.45;100013.97;4500874;31;33489;-66
2023/07/10 05:37:40;;;;;;;10.13;5.75;;;;;;;27.35;42.58;100018.38;4500763;31;33722;-65
2023/07/10 05:40:08;;;;;;;8.98;5.75;;;;;;;27.33;42.65;100018.62;4500714;31;34037;-73
2023/07/10 05:42:35;;;;;;;7.65;5.45;;;;;;;27.35;42.85;100016.47;4499419;31;33843;-71
2023/07/10 05:45:03;;;;;;;8.23;4.90;;;;;;;27.37;42.82;100030.75;4500821;31;34208;-69
2023/07/10 05:47:31;;;;;;;7.15;5.05;;;;;;;27.38;42.75;100026.09;4499388;31;34720;-69
2023/07/10 05:49:59;;;;;;;10.18;5.97;;;;;;;27.39;42.67;100020.37;4500892;31;33915;-66
2023/07/10 05:52:26;;;;;;;8.55;5.53;;;;;;;27.39;42.74;100017.63;4500389;31;33871;-73
2023/07/10 05:54:54;;;;;;;8.13;5.68;;;;;;;27.40;42.86;100021.19;4500553;31;33328;-73
2023/07/10 05:57:22;;;;;;;11.23;5.87;;;;;;;27.41;42.93;100023.69;4500367;31;34794;-69
2023/07/10 05:59:50;;;;;;;8.52;5.62;;;;;;;27.43;43.19;100026.19;4500367;31;34676;-66
2023/07/10 06:02:18;;;;;;;9.13;5.62;;;;;;;27.43;43.21;100029.75;4500558;31;33858;-65
2023/07/10 06:04:46;;;;;;;12.40;6.10;;;;;;;27.41;43.20;100026.41;4499423;31;33396;-65
2023/07/10 06:07:13;;;;;;;11.90;5.90;;;;;;;27.44;43.37;100030.59;4500330;31;33850;-67
2023/07/10 06:09:41;;;;;;;9.68;6.15;;;;;;;27.44;43.38;100027.84;4500482;31;33833;-68
2023/07/10 06:12:08;;;;;;;8.80;5.57;;;;;;;27.45;43.42;100030.31;4500413;31;33781;-67
2023/07/10 06:14:36;;;;;;;8.00;5.95;;;;;;;27.44;43.42;100022.38;4500401;31;33332;-73
2023/07/10 06:17:04;;;;;;;9.68;6.47;;;;;;;27.44;43.37;100020.44;4500346;31;33382;-65
2023/07/10 06:19:32;;;;;;;9.25;6.75;;;;;;;27.45;43.42;100019.38;4500524;31;33678;-75
2023/07/10 06:22:07;;;;;;;8.98;6.87;;;;;;;27.46;43.40;100015.53;4500244;31;33385;-67
2023/07/10 06:24:35;;;;;;;8.60;6.55;;;;;;;27.47;43.40;100019.13;4500362;31;33464;-76
2023/07/10 06:27:02;;;;;;;10.55;6.97;;;;;;;27.47;43.38;100013.66;4500250;31;34851;-75
2023/07/10 06:29:31;;;;;;;9.55;6.78;;;;;;;27.46;43.40;100012.78;4500462;31;33908;-73
2023/07/10 06:31:59;;;;;;;8.23;6.57;;;;;;;27.46;43.40;100015.53;4496383;31;85509;-68
2023/07/10 06:34:28;;;;;;;8.57;6.32;;;;;;;27.48;43.38;100015.31;4485705;31;34178;-75
2023/07/10 06:36:55;;;;;;;12.02;7.20;;;;;;;27.48;43.40;100017.22;4500190;31;33599;-75
2023/07/10 06:39:26;;;;;;;8.57;6.25;;;;;;;27.48;43.35;100020.78;4500110;31;33815;-72
2023/07/10 06:41:53;;;;;;;9.45;6.30;;;;;;;27.47;43.37;100013.66;4483020;32;33880;-66
2023/07/10 06:44:21;;;;;;;11.93;6.87;;;;;;;27.49;43.38;100007.91;4484630;32;34235;-75
2023/07/10 06:46:51;;;;;;;8.88;6.18;;;;;;;27.49;43.38;100010.66;4484470;32;33454;-67
2023/07/10 06:49:18;;;;;;;10.15;6.53;;;;;;;27.50;43.37;100009.56;4481535;32;33645;-66
2023/07/10 06:51:46;;;;;;;8.63;6.62;;;;;;;27.50;43.37;100013.13;4482602;32;33701;-72
2023/07/10 06:54:13;;;;;;;8.55;6.40;;;;;;;27.51;43.39;100008.47;4483030;32;33235;-67
2023/07/10 06:56:41;;;;;;;9.85;6.45;;;;;;;27.50;43.36;100013.13;4483607;32;33843;-75
2023/07/10 06:59:08;;;;;;;9.25;6.47;;;;;;;27.50;43.31;100004.91;4483714;32;33571;-72
2023/07/10 07:01:36;;;;;;;10.15;6.65;;;;;;;27.50;43.28;100001.34;4483841;32;34034;-65
2023/07/10 07:04:04;;;;;;;8.43;6.37;;;;;;;27.50;43.24;100009.56;4484017;32;33612;-66
2023/07/10 07:06:31;;;;;;;10.23;6.47;;;;;;;27.49;43.21;100006.00;4484438;32;34072;-68
2023/07/10 07:08:59;;;;;;;9.77;6.22;;;;;;;27.50;43.17;100004.09;4484428;32;33916;-66
2023/07/10 07:11:27;;;;;;;8.25;6.07;;;;;;;27.51;43.11;100011.22;4484210;32;33929;-65
2023/07/10 07:13:54;;;;;;;11.12;6.70;;;;;;;27.51;43.05;100003.81;4484354;32;33303;-73
2023/07/10 07:16:22;;;;;;;9.30;6.25;;;;;;;27.50;43.02;100002.19;4484522;32;33714;-66
2023/07/10 07:18:51;;;;;;;8.07;5.87;;;;;;;27.51;42.98;99998.34;4484114;32;34167;-65
2023/07/10 07:21:33;;;;;;;7.85;5.53;;;;;;;27.51;42.96;99994.78;4484297;32;33390;-70
2023/07/10 07:24:00;;;;;;;11.07;6.57;;;;;;;27.53;42.90;100000.88;4484058;32;32894;-65
2023/07/10 07:26:28;;;;;;;8.73;5.87;;;;;;;27.52;42.88;100001.94;4484114;32;34124;-65
2023/07/10 07:28:55;;;;;;;8.82;5.70;;;;;;;27.51;42.87;99995.59;4484147;32;33864;-65
2023/07/10 07:31:23;;;;;;;9.63;6.20;;;;;;;27.51;42.85;100001.09;4483846;32;34474;-65
2023/07/10 07:33:51;;;;;;;8.50;5.15;;;;;;;27.53;42.82;100003.59;4484234;32;33603;-67
2023/07/10 07:36:18;;;;;;;8.40;5.53;;;;;;;27.52;42.79;100008.25;4484112;32;33974;-66
2023/07/10 07:38:47;;;;;;;7.55;5.60;;;;;;;27.55;42.76;100009.66;4483844;32;34004;-66
2023/07/10 07:41:15;;;;;;;8.60;5.65;;;;;;;27.54;42.75;99997.03;4484056;32;34454;-75
2023/07/10 07:43:42;;;;;;;7.62;5.57;;;;;;;27.53;42.73;99993.47;4483997;32;34174;-65
2023/07/10 07:46:10;;;;;;;7.85;5.45;;;;;;;27.54;42.71;99992.38;4483583;32;33988;-75
2023/07/10 07:48:37;;;;;;;9.82;5.72;;;;;;;27.54;42.71;99997.88;4483523;32;33998;-68
2023/07/10 07:51:05;;;;;;;7.70;5.35;;;;;;;27.55;42.70;99996.78;4483920;32;33933;-66
2023/07/10 07:53:34;;;;;;;10.63;5.70;;;;;;;27.56;42.69;100000.34;4483734;32;33724;-65
2023/07/10 07:56:02;;;;;;;8.67;5.10;;;;;;;27.56;42.72;100000.34;4482597;32;33491;-66
2023/07/10 07:58:30;;;;;;;9.00;5.90;;;;;;;27.57;42.69;99996.53;4483778;32;33790;-65
2023/07/10 08:00:59;;;;;;;8.13;5.35;;;;;;;27.56;42.72;99995.72;4483730;32;33519;-72
2023/07/10 08:03:27;;;;;;;7.72;5.85;;;;;;;27.56;42.74;99992.97;4482647;32;34754;-68
2023/07/10 08:05:55;;;;;;;8.48;5.07;;;;;;;27.59;42.72;99997.12;4483720;32;33069;-71
2023/07/10 08:08:23;;;;;;;8.27;5.68;;;;;;;27.58;42.73;99985.31;4483618;32;33808;-69
2023/07/10 08:10:51;;;;;;;7.28;5.30;;;;;;;27.57;42.74;99989.16;4483617;32;33925;-69
2023/07/10 08:13:19;;;;;;;8.63;5.68;;;;;;;27.57;42.75;99986.41;4482416;32;33343;-66
2023/07/10 08:15:47;;;;;;;8.77;5.00;;;;;;;27.59;42.77;99986.16;4483523;32;33601;-66
2023/07/10 08:18:14;;;;;;;6.68;5.15;;;;;;;27.59;42.76;99986.16;4483400;32;34751;-65
2023/07/10 08:20:42;;;;;;;7.20;5.10;;;;;;;27.59;42.77;99983.41;4483513;32;33472;-68
2023/07/10 08:23:09;;;;;;;7.12;5.32;;;;;;;27.59;42.76;99984.22;4483505;32;33428;-70
2023/07/10 08:25:38;;;;;;;7.47;5.37;;;;;;;27.60;42.75;99987.81;4483339;32;34780;-71
2023/07/10 08:28:05;;;;;;;6.53;4.87;;;;;;;27.59;42.76;99976.00;4483240;32;33610;-66
2023/07/10 08:30:33;;;;;;;8.23;5.78;;;;;;;27.60;42.74;99974.94;4483401;32;33396;-66
2023/07/10 08:33:01;;;;;;;6.75;5.25;;;;;;;27.59;42.73;99970.53;4483392;32;33692;-77
2023/07/10 08:35:28;;;;;;;7.75;5.50;;;;;;;27.60;42.73;99968.63;4483097;32;34579;-66
2023/07/10 08:37:56;;;;;;;7.53;5.57;;;;;;;27.61;42.72;99978.53;4483186;32;33983;-72
2023/07/10 08:40:29;;;;;;;7.05;4.93;;;;;;;27.60;42.71;99968.63;4483112;32;34892;-65
2023/07/10 08:42:57;;;;;;;8.10;5.12;;;;;;;27.60;42.71;99965.88;4481823;32;34321;-73
2023/07/10 08:45:33;;;;;;;7.28;5.07;;;;;;;27.60;42.69;99958.47;4469120;32;34239;-66
2023/07/10 08:48:26;;;;;;;7.95;5.57;;;;;;;27.61;42.67;99957.41;4483063;32;34445;-70
2023/07/10 08:50:56;;;;;;;7.55;5.28;;;;;;;27.61;42.69;99962.91;4482040;32;34516;-75
2023/07/10 08:53:25;;;;;;;8.70;5.45;;;;;;;27.61;42.68;99959.34;4481691;32;34441;-69
2023/07/10 08:56:10;;;;;;;7.18;4.90;;;;;;;27.61;42.66;99957.41;4481883;32;34547;-66
2023/07/10 08:58:38;;;;;;;7.50;5.40;;;;;;;27.63;42.61;99960.72;4483199;31;33895;-73
2023/07/10 09:01:21;;;;;;;7.78;5.35;;;;;;;27.62;42.63;99950.84;4485343;32;33704;-70
2023/07/10 09:03:51;;;;;;;6.75;5.22;;;;;;;27.62;42.62;99950.84;4485328;31;33021;-70
2023/07/10 09:06:33;;;;;;;;;;;;;;;27.63;42.59;99955.25;4484361;32;33725;-65
2023/07/10 09:09:00;;;;;;;8.48;5.07;;;;;;;27.73;42.38;99949.13;4483961;32;35155;-68
2023/07/10 09:11:28;;;;;;;6.70;4.57;;;;;;;27.65;42.51;99955.84;4483985;32;33742;-67
2023/07/10 09:14:12;;;;;;;8.05;5.12;;;;;;;27.63;42.57;99952.50;4483849;32;33557;-69
2023/07/10 09:16:41;;;;;;;7.40;5.25;;;;;;;27.62;42.59;99967.31;4483746;32;34947;-77
2023/07/10 09:19:15;;;;;;;6.07;4.70;;;;;;;27.62;42.57;99958.25;4483900;32;34954;-66
2023/07/10 09:21:43;;;;;;;9.13;4.90;;;;;;;27.62;42.58;99950.84;4483749;32;33970;-65
2023/07/10 09:24:18;;;;;;;7.03;4.80;;;;;;;27.63;42.57;99957.16;4485070;32;33467;-72
2023/07/10 09:26:46;;;;;;;8.15;5.30;;;;;;;27.63;42.55;99951.69;4471110;32;33949;-70
2023/07/10 09:29:14;;;;;;;7.47;4.68;;;;;;;27.62;42.54;99956.34;4485317;32;33766;-73
2023/07/10 09:32:10;;;;;;;7.78;4.75;;;;;;;27.62;42.54;99948.13;4484821;32;34816;-77
2023/07/10 09:34:45;;;;;;;6.15;4.78;;;;;;;27.64;42.51;99940.44;4485181;32;33639;-66
2023/07/10 09:37:14;;;;;;;6.20;4.60;;;;;;;27.64;42.51;99936.88;4483950;32;34618;-75
2023/07/10 09:39:42;;;;;;;6.13;4.07;;;;;;;27.63;42.51;99929.75;4483840;32;33840;-73
2023/07/10 09:42:18;;;;;;;7.00;4.70;;;;;;;27.64;42.47;99942.38;4484998;32;33949;-76
2023/07/10 09:44:51;;;;;;;6.75;4.87;;;;;;;27.64;42.47;99926.75;4484961;32;33314;-65
2023/07/10 09:47:19;;;;;;;6.78;5.05;;;;;;;27.65;42.47;99933.06;4483819;32;34528;-68
2023/07/10 09:49:51;;;;;;;7.25;5.18;;;;;;;27.65;42.44;99920.22;4483787;32;34780;-73
2023/07/10 09:52:27;;;;;;;7.57;5.28;;;;;;;27.63;42.45;99925.09;4485038;32;33948;-71
2023/07/10 09:55:11;;;;;;;6.28;4.32;;;;;;;27.66;42.43;99932.00;4484864;32;33318;-74
2023/07/10 09:58:04;;;;;;;6.70;4.70;;;;;;;27.65;42.42;99928.44;4484605;32;33569;-66
2023/07/10 10:00:32;;;;;;;6.65;4.85;;;;;;;27.69;42.36;99924.06;4482492;31;34692;-67
2023/07/10 10:03:14;;;;;;;7.43;4.70;;;;;;;27.66;42.40;99916.38;4484670;32;33957;-70
2023/07/10 10:05:42;;;;;;;6.85;4.95;;;;;;;27.68;42.39;99910.63;4483972;31;33416;-67
2023/07/10 10:08:40;;;;;;;6.45;4.65;;;;;;;27.67;42.38;99906.25;4483447;32;33688;-73
2023/07/10 10:11:09;;;;;;;6.70;4.70;;;;;;;27.68;42.37;99914.19;4481078;32;34476;-66
2023/07/10 10:13:46;;;;;;;7.12;5.00;;;;;;;27.66;42.38;99907.31;4484620;32;33610;-67
2023/07/10 10:16:32;;;;;;;6.55;4.82;;;;;;;27.66;42.40;99902.66;4483705;32;33817;-76
2023/07/10 10:19:17;;;;;;;5.95;4.62;;;;;;;27.68;42.36;99910.63;4484743;32;34080;-76
2023/07/10 10:21:44;;;;;;;7.25;5.03;;;;;;;27.68;42.34;99905.97;4483456;32;34920;-66
2023/07/10 10:24:12;;;;;;;6.37;4.37;;;;;;;27.66;42.37;99891.72;4483383;31;34090;-67
2023/07/10 10:26:51;;;;;;;6.43;4.50;;;;;;;27.67;42.38;99892.53;4483615;32;33256;-72
2023/07/10 10:29:24;;;;;;;8.00;4.82;;;;;;;27.69;42.35;99887.63;4484555;32;33891;-74
2023/07/10 10:32:11;;;;;;;7.45;5.22;;;;;;;27.69;42.33;99882.13;4484772;32;33982;-65
2023/07/10 10:35:12;;;;;;;6.62;4.30;;;;;;;27.70;42.30;99881.91;4484501;32;34673;-67
2023/07/10 10:37:52;;;;;;;6.60;4.15;;;;;;;27.69;42.31;99872.00;4484484;32;33312;-73
2023/07/10 10:40:57;;;;;;;7.60;5.15;;;;;;;27.68;42.32;99884.03;4471015;32;34036;-71
2023/07/10 10:43:28;;;;;;;6.10;4.40;;;;;;;27.70;42.29;99875.59;4484717;32;34786;-76
2023/07/10 10:46:04;;;;;;;6.07;4.20;;;;;;;27.68;42.33;99881.31;4484645;32;34896;-72
2023/07/10 10:48:42;;;;;;;6.35;4.53;;;;;;;27.66;42.35;99875.25;4484682;32;34385;-66
2023/07/10 10:51:30;;;;;;;7.10;4.60;;;;;;;27.69;42.32;99874.72;4483197;32;34010;-67
2023/07/10 10:54:10;;;;;;;6.50;4.35;;;;;;;27.70;42.29;99868.19;4484526;32;34927;-67
2023/07/10 10:57:17;;;;;;;6.93;4.50;;;;;;;27.69;42.31;99869.25;4484266;31;33898;-72
2023/07/10 10:59:53;;;;;;;6.50;4.78;;;;;;;27.69;42.31;99869.25;4472267;32;33334;-75
2023/07/10 11:02:33;;;;;;;7.18;4.70;;;;;;;27.71;42.28;99880.84;4483280;32;33415;-76
2023/07/10 11:05:32;;;;;;;7.12;4.85;;;;;;;27.71;42.29;99871.75;4483205;32;34923;-75
2023/07/10 11:08:01;;;;;;;8.63;5.00;;;;;;;27.73;42.27;99866.88;4483127;32;34937;-70
2023/07/10 11:10:33;;;;;;;7.07;4.32;;;;;;;27.71;42.27;99866.28;4483248;32;33413;-72
2023/07/10 11:13:00;;;;;;;6.40;4.30;;;;;;;27.71;42.31;99866.28;4483394;32;34770;-73
2023/07/10 11:15:28;;;;;;;6.55;4.60;;;;;;;27.70;42.29;99865.44;4484202;32;34619;-65
2023/07/10 11:17:55;;;;;;;6.50;4.60;;;;;;;27.71;42.29;99863.53;4470050;32;32949;-74
2023/07/10 11:20:23;;;;;;;5.95;4.03;;;;;;;27.71;42.28;99858.91;4482987;32;33783;-66
2023/07/10 11:22:56;;;;;;;5.97;3.90;;;;;;;27.70;42.28;99862.72;4468806;32;34018;-66
2023/07/10 11:25:33;;;;;;;6.37;4.40;;;;;;;27.71;42.28;99858.06;4482949;32;34588;-69
2023/07/10 11:28:02;;;;;;;6.30;4.53;;;;;;;27.73;42.27;99863.31;4484121;32;33933;-66
2023/07/10 11:30:32;;;;;;;6.07;4.20;;;;;;;27.72;42.27;99854.25;4482879;32;34076;-69
2023/07/10 11:33:16;;;;;;;6.22;4.60;;;;;;;27.73;42.26;99852.34;4482985;32;34699;-66
2023/07/10 11:36:35;;;;;;;6.62;4.57;;;;;;;27.76;42.21;99846.34;4483067;32;34001;-75
2023/07/10 11:39:06;;;;;;;6.53;4.18;;;;;;;27.76;42.21;99851.84;4482957;32;33611;-72
2023/07/10 11:41:38;;;;;;;6.50;4.55;;;;;;;27.74;42.26;99851.25;4484181;32;33394;-75
2023/07/10 11:44:18;;;;;;;6.53;4.10;;;;;;;27.73;42.28;99858.66;4484164;32;33807;-66
2023/07/10 11:47:04;;;;;;;5.60;4.30;;;;;;;27.76;42.25;99843.63;4482891;32;34901;-72